Time;durP1;ratioP1;P1;durP2;ratioP2;P2;SDS_P1;SDS_P2;PMS_P1;PMS_P2;Temp;Humidity;BMP_temperature;BMP_pressure;BME280_temperature;BME280_humidity;BME280_pressure;Samples;Min_cycle;Max_cycle;Signal;HPM_P1;HPM_P2
2022/03/11 00:00:31;;;;;;;;;;;;;;;;;;4981656;28;5445;-74
2022/03/11 00:02:56;;;;;;;;;;;;;;;;;;4982636;28;5379;-74
2022/03/11 00:05:22;;;;;;;;;;;;;;;;;;4983083;28;5648;-74
2022/03/11 00:07:47;;;;;;;;;;;;;;;;;;4982504;28;5708;-73
2022/03/11 00:10:12;;;;;;;;;;;;;;;;;;4981942;28;6012;-74
2022/03/11 00:12:37;;;;;;;;;;;;;;;;;;4981399;28;5436;-73
2022/03/11 00:15:04;;;;;;;;;;;;;;;;;;4981499;28;5415;-74
2022/03/11 00:17:30;;;;;;;;;;;;;;;;;;4982664;28;5574;-74
2022/03/11 00:19:55;;;;;;;;;;;;;;;;;;4982282;28;5530;-74
2022/03/11 00:22:20;;;;;;;;;;;;;;;;;;4981757;28;5924;-74
2022/03/11 00:24:46;;;;;;;;;;;;;;;;;;4982002;28;5517;-73
2022/03/11 00:27:11;;;;;;;;;;;;;;;;;;4982502;28;5522;-73
2022/03/11 00:29:36;;;;;;;;;;;;;;;;;;4981368;28;5719;-74
2022/03/11 00:32:02;;;;;;;;;;;;;;;;;;4982999;28;5458;-75
2022/03/11 00:34:27;;;;;;;;;;;;;;;;;;4981018;28;5442;-73
2022/03/11 00:36:52;;;;;;;;;;;;;;;;;;4983595;28;6000;-74
2022/03/11 00:39:17;;;;;;;;;;;;;;;;;;4981579;28;5621;-74
2022/03/11 00:41:42;;;;;;;;;;;;;;;;;;4981755;28;5436;-74
2022/03/11 00:44:08;;;;;;;;;;;;;;;;;;4982274;28;5623;-74
2022/03/11 00:46:33;;;;;;;;;;;;;;;;;;4980345;28;5665;-74
2022/03/11 00:48:58;;;;;;;;;;;;;;;;;;4981824;28;5520;-74
2022/03/11 00:51:23;;;;;;;;;;;;;;;;;;4981239;28;6314;-75
2022/03/11 00:53:48;;;;;;;;;;;;;;;;;;4981459;28;6101;-75
2022/03/11 00:56:14;;;;;;;;;;;;;;;;;;4981140;28;5491;-74
2022/03/11 00:58:39;;;;;;;;;;;;;;;;;;4980124;28;5559;-74
2022/03/11 01:01:04;;;;;;;;;;;;;;;;;;4982635;28;5373;-74
2022/03/11 01:03:29;;;;;;;;;;;;;;;;;;4981666;28;6012;-74
2022/03/11 01:05:54;;;;;;;;;;;;;;;;;;4980842;28;6305;-74
2022/03/11 01:08:19;;;;;;;;;;;;;;;;;;4981581;28;5603;-74
2022/03/11 01:10:45;;;;;;;;;;;;;;;;;;4981580;28;5518;-75
2022/03/11 01:13:10;;;;;;;;;;;;;;;;;;4982475;28;5460;-75
2022/03/11 01:15:35;;;;;;;;;;;;;;;;;;4980224;28;5445;-75
2022/03/11 01:18:00;;;;;;;;;;;;;;;;;;4981760;28;5996;-75
2022/03/11 01:20:25;;;;;;;;;;;;;;;;;;4980696;28;5793;-74
2022/03/11 01:22:51;;;;;;;;;;;;;;;;;;4981277;28;5526;-74
2022/03/11 01:25:16;;;;;;;;;;;;;;;;;;4980277;28;5587;-74
2022/03/11 01:27:41;;;;;;;;;;;;;;;;;;4982182;28;5593;-74
2022/03/11 01:30:07;;;;;;;;;;;;;;;;;;4981017;28;5607;-74
2022/03/11 01:32:32;;;;;;;;;;;;;;;;;;4980615;28;6248;-75
2022/03/11 01:34:57;;;;;;;;;;;;;;;;;;4981110;28;5563;-74
2022/03/11 01:37:22;;;;;;;;;;;;;;;;;;4980726;28;5630;-75
2022/03/11 01:39:48;;;;;;;;;;;;;;;;;;4981051;28;5680;-75
2022/03/11 01:42:13;;;;;;;;;;;;;;;;;;4981270;28;5648;-74
2022/03/11 01:44:38;;;;;;;;;;;;;;;;;;4980294;28;5529;-73
2022/03/11 01:47:04;;;;;;;;;;;;;;;;;;4980633;28;6310;-73
2022/03/11 01:49:29;;;;;;;;;;;;;;;;;;4980032;28;5611;-73
2022/03/11 01:51:54;;;;;;;;;;;;;;;;;;4980809;28;5690;-73
2022/03/11 01:54:19;;;;;;;;;;;;;;;;;;4980420;28;5421;-73
2022/03/11 01:56:44;;;;;;;;;;;;;;;;;;4980780;28;5384;-73
2022/03/11 01:59:13;;;;;;;;;;;;;;;;;;4980863;28;5731;-74
2022/03/11 02:01:38;;;;;;;;;;;;;;;;;;4979743;28;5643;-73
2022/03/11 02:04:04;;;;;;;;;;;;;;;;;;4980526;28;5494;-74
2022/03/11 02:06:29;;;;;;;;;;;;;;;;;;4979397;28;5631;-74
2022/03/11 02:08:55;;;;;;;;;;;;;;;;;;4980451;28;5526;-74
2022/03/11 02:11:21;;;;;;;;;;;;;;;;;;4980689;28;5656;-74
2022/03/11 02:13:54;;;;;;;;;;;;;;;;;;4980821;28;5579;-74
2022/03/11 02:16:21;;;;;;;;;;;;;;;;;;4979543;28;5567;-74
2022/03/11 02:18:46;;;;;;;;;;;;;;;;;;4979195;28;5537;-74
2022/03/11 02:21:12;;;;;;;;;;;;;;;;;;4980856;28;5435;-75
2022/03/11 02:23:51;;;;;;;;;;;;;;;;;;4981917;28;5425;-75
2022/03/11 02:26:17;;;;;;;;;;;;;;;;;;4979443;28;5365;-74
2022/03/11 02:28:43;;;;;;;;;;;;;;;;;;4980482;28;5537;-74
2022/03/11 02:31:08;;;;;;;;;;;;;;;;;;4979514;28;5648;-73
2022/03/11 02:33:33;;;;;;;;;;;;;;;;;;4979585;28;5682;-73
2022/03/11 02:35:59;;;;;;;;;;;;;;;;;;4979735;28;5338;-73
2022/03/11 02:38:24;;;;;;;;;;;;;;;;;;4979327;28;5627;-73
2022/03/11 02:40:49;;;;;;;;;;;;;;;;;;4982180;28;5499;-73
2022/03/11 02:43:15;;;;;;;;;;;;;;;;;;4980146;28;5667;-74
2022/03/11 02:45:40;;;;;;;;;;;;;;;;;;4979317;28;5755;-75
2022/03/11 02:48:05;;;;;;;;;;;;;;;;;;4980058;28;5601;-74
2022/03/11 02:50:31;;;;;;;;;;;;;;;;;;4979491;28;5420;-74
2022/03/11 02:52:56;;;;;;;;;;;;;;;;;;4980183;28;5536;-74
2022/03/11 02:55:21;;;;;;;;;;;;;;;;;;4978327;28;5458;-74
2022/03/11 02:57:46;;;;;;;;;;;;;;;;;;4980363;28;5421;-74
2022/03/11 03:00:12;;;;;;;;;;;;;;;;;;4980568;28;5583;-73
2022/03/11 03:02:37;;;;;;;;;;;;;;;;;;4979491;28;5558;-74
2022/03/11 03:05:04;;;;;;;;;;;;;;;;;;4980251;28;5764;-75
2022/03/11 03:07:30;;;;;;;;;;;;;;;;;;4979522;28;5579;-75
2022/03/11 03:09:56;;;;;;;;;;;;;;;;;;4980102;28;5594;-75
2022/03/11 03:12:21;;;;;;;;;;;;;;;;;;4979231;28;5786;-75
2022/03/11 03:14:46;;;;;;;;;;;;;;;;;;4979386;28;5452;-75
2022/03/11 03:17:11;;;;;;;;;;;;;;;;;;4978867;28;5527;-75
2022/03/11 03:19:38;;;;;;;;;;;;;;;;;;4979527;28;5538;-74
2022/03/11 03:22:03;;;;;;;;;;;;;;;;;;4979540;28;5525;-74
2022/03/11 03:24:28;;;;;;;;;;;;;;;;;;4977901;28;5631;-74
2022/03/11 03:26:55;;;;;;;;;;;;;;;;;;4979989;28;5441;-73
2022/03/11 03:29:21;;;;;;;;;;;;;;;;;;4978236;28;5427;-73
2022/03/11 03:31:46;;;;;;;;;;;;;;;;;;4979378;28;5399;-73
2022/03/11 03:34:11;;;;;;;;;;;;;;;;;;4980085;28;5599;-72
2022/03/11 03:36:36;;;;;;;;;;;;;;;;;;4978109;28;6373;-73
2022/03/11 03:39:02;;;;;;;;;;;;;;;;;;4979342;28;5527;-73
2022/03/11 03:41:27;;;;;;;;;;;;;;;;;;4980696;28;5495;-74
2022/03/11 03:43:52;;;;;;;;;;;;;;;;;;4978154;28;6268;-75
2022/03/11 03:46:17;;;;;;;;;;;;;;;;;;4977513;28;5631;-75
2022/03/11 03:48:43;;;;;;;;;;;;;;;;;;4979804;28;5501;-75
2022/03/11 03:51:08;;;;;;;;;;;;;;;;;;4979168;28;6336;-75
2022/03/11 03:53:33;;;;;;;;;;;;;;;;;;4978624;28;5589;-75
2022/03/11 03:55:58;;;;;;;;;;;;;;;;;;4979735;28;5561;-75
2022/03/11 03:58:23;;;;;;;;;;;;;;;;;;4978610;28;5612;-75
2022/03/11 04:00:49;;;;;;;;;;;;;;;;;;4978148;28;5398;-75
2022/03/11 04:03:14;;;;;;;;;;;;;;;;;;4978971;28;5756;-74
2022/03/11 04:05:39;;;;;;;;;;;;;;;;;;4979560;28;5452;-74
2022/03/11 04:08:05;;;;;;;;;;;;;;;;;;4979945;28;5546;-74
2022/03/11 04:10:30;;;;;;;;;;;;;;;;;;4979672;28;5606;-74
2022/03/11 04:12:56;;;;;;;;;;;;;;;;;;4979030;28;5388;-74
2022/03/11 04:15:21;;;;;;;;;;;;;;;;;;4977359;28;5450;-74
2022/03/11 04:17:46;;;;;;;;;;;;;;;;;;4978558;28;5523;-75
2022/03/11 04:20:11;;;;;;;;;;;;;;;;;;4978856;28;5515;-73
2022/03/11 04:22:44;;;;;;;;;;;;;;;;;;4978554;28;5525;-74
2022/03/11 04:25:13;;;;;;;;;;;;;;;;;;4977749;28;5534;-73
2022/03/11 04:27:38;;;;;;;;;;;;;;;;;;4977096;28;5545;-73
2022/03/11 04:30:04;;;;;;;;;;;;;;;;;;4978766;28;5546;-72
2022/03/11 04:32:30;;;;;;;;;;;;;;;;;;4977476;28;6303;-72
2022/03/11 04:34:55;;;;;;;;;;;;;;;;;;4976710;28;5558;-71
2022/03/11 04:37:20;;;;;;;;;;;;;;;;;;4977646;28;5764;-71
2022/03/11 04:39:45;;;;;;;;;;;;;;;;;;4979117;28;5381;-73
2022/03/11 04:42:10;;;;;;;;;;;;;;;;;;4980757;28;5593;-72
2022/03/11 04:44:36;;;;;;;;;;;;;;;;;;4980898;28;5491;-73
2022/03/11 04:47:02;;;;;;;;;;;;;;;;;;4983693;28;5556;-73
2022/03/11 04:49:28;;;;;;;;;;;;;;;;;;4980780;28;5578;-73
2022/03/11 04:51:53;;;;;;;;;;;;;;;;;;4981897;28;5510;-73
2022/03/11 04:54:18;;;;;;;;;;;;;;;;;;4981870;28;5642;-72
2022/03/11 04:56:43;;;;;;;;;;;;;;;;;;4980082;28;5572;-72
2022/03/11 04:59:08;;;;;;;;;;;;;;;;;;4982516;28;5489;-72
2022/03/11 05:01:33;;;;;;;;;;;;;;;;;;4981729;28;5783;-73
2022/03/11 05:03:59;;;;;;;;;;;;;;;;;;4983757;28;5526;-74
2022/03/11 05:06:24;;;;;;;;;;;;;;;;;;4980052;28;5593;-74
2022/03/11 05:08:49;;;;;;;;;;;;;;;;;;4982497;28;5385;-74
2022/03/11 05:11:15;;;;;;;;;;;;;;;;;;4980995;28;5592;-73
2022/03/11 05:13:41;;;;;;;;;;;;;;;;;;4982268;28;5412;-74
2022/03/11 05:16:06;;;;;;;;;;;;;;;;;;4980900;28;5609;-73
2022/03/11 05:18:31;;;;;;;;;;;;;;;;;;4981273;28;5513;-73
2022/03/11 05:20:56;;;;;;;;;;;;;;;;;;4981483;28;5584;-73
2022/03/11 05:23:22;;;;;;;;;;;;;;;;;;4980759;28;5583;-72
2022/03/11 05:25:47;;;;;;;;;;;;;;;;;;4981355;28;5587;-72
2022/03/11 05:28:12;;;;;;;;;;;;;;;;;;4981150;28;5454;-72
2022/03/11 05:30:38;;;;;;;;;;;;;;;;;;4980536;28;5536;-72
2022/03/11 05:33:04;;;;;;;;;;;;;;;;;;4980980;28;5400;-72
2022/03/11 05:35:29;;;;;;;;;;;;;;;;;;4979994;28;5445;-72
2022/03/11 05:37:54;;;;;;;;;;;;;;;;;;4981086;28;5534;-72
2022/03/11 05:40:19;;;;;;;;;;;;;;;;;;4981002;28;5673;-72
2022/03/11 05:42:45;;;;;;;;;;;;;;;;;;4982248;28;5605;-72
2022/03/11 05:45:10;;;;;;;;;;;;;;;;;;4980402;28;5494;-72
2022/03/11 05:47:36;;;;;;;;;;;;;;;;;;4980374;28;5594;-72
2022/03/11 05:50:01;;;;;;;;;;;;;;;;;;4981201;28;5568;-72
2022/03/11 05:52:26;;;;;;;;;;;;;;;;;;4980169;28;5600;-73
2022/03/11 05:54:52;;;;;;;;;;;;;;;;;;4982012;28;5542;-74
2022/03/11 05:57:17;;;;;;;;;;;;;;;;;;4979382;28;5655;-74
2022/03/11 05:59:42;;;;;;;;;;;;;;;;;;4980908;28;5368;-73
2022/03/11 06:02:07;;;;;;;;;;;;;;;;;;4980635;28;5591;-73
2022/03/11 06:04:32;;;;;;;;;;;;;;;;;;4980019;28;5631;-71
2022/03/11 06:06:58;;;;;;;;;;;;;;;;;;4979455;28;6028;-71
2022/03/11 06:09:23;;;;;;;;;;;;;;;;;;4978859;28;5599;-71
2022/03/11 06:11:48;;;;;;;;;;;;;;;;;;4980090;28;5418;-72
2022/03/11 06:14:13;;;;;;;;;;;;;;;;;;4980730;28;5604;-73
2022/03/11 06:16:39;;;;;;;;;;;;;;;;;;4978988;28;5598;-72
2022/03/11 06:19:04;;;;;;;;;;;;;;;;;;4980431;28;5543;-72
2022/03/11 06:21:29;;;;;;;;;;;;;;;;;;4979243;28;5966;-71
2022/03/11 06:23:54;;;;;;;;;;;;;;;;;;4981064;28;5607;-73
2022/03/11 06:26:20;;;;;;;;;;;;;;;;;;4978727;28;5597;-72
2022/03/11 06:28:45;;;;;;;;;;;;;;;;;;4979953;28;5538;-72
2022/03/11 06:31:11;;;;;;;;;;;;;;;;;;4979883;28;5460;-72
2022/03/11 06:33:36;;;;;;;;;;;;;;;;;;4979231;28;5991;-71
2022/03/11 06:36:01;;;;;;;;;;;;;;;;;;4980612;28;5563;-76
2022/03/11 06:38:27;;;;;;;;;;;;;;;;;;4978815;28;5589;-76
2022/03/11 06:40:54;;;;;;;;;;;;;;;;;;4980150;28;5391;-75
2022/03/11 06:43:19;;;;;;;;;;;;;;;;;;4979935;28;5602;-76
2022/03/11 06:45:44;;;;;;;;;;;;;;;;;;4978777;28;5432;-76
2022/03/11 06:48:10;;;;;;;;;;;;;;;;;;4980423;28;5472;-76
2022/03/11 06:50:35;;;;;;;;;;;;;;;;;;4979055;28;5532;-76
2022/03/11 06:53:00;;;;;;;;;;;;;;;;;;4980682;28;5393;-76
2022/03/11 06:55:25;;;;;;;;;;;;;;;;;;4978520;28;5517;-77
2022/03/11 06:57:50;;;;;;;;;;;;;;;;;;4980268;28;5520;-78
2022/03/11 07:00:16;;;;;;;;;;;;;;;;;;4979796;28;5630;-77
2022/03/11 07:02:41;;;;;;;;;;;;;;;;;;4979112;28;5395;-77
2022/03/11 07:05:07;;;;;;;;;;;;;;;;;;4970945;28;5484;-77
2022/03/11 07:07:33;;;;;;;;;;;;;;;;;;4980896;28;5466;-78
2022/03/11 07:09:58;;;;;;;;;;;;;;;;;;4979717;28;5567;-77
2022/03/11 07:12:24;;;;;;;;;;;;;;;;;;4978592;28;5664;-77
2022/03/11 07:14:49;;;;;;;;;;;;;;;;;;4978218;28;5633;-79
2022/03/11 07:17:14;;;;;;;;;;;;;;;;;;4979159;28;6483;-76
2022/03/11 07:19:40;;;;;;;;;;;;;;;;;;4978997;28;5448;-76
2022/03/11 07:22:05;;;;;;;;;;;;;;;;;;4979501;28;5382;-76
2022/03/11 07:24:31;;;;;;;;;;;;;;;;;;4979851;28;5468;-76
2022/03/11 07:26:56;;;;;;;;;;;;;;;;;;4978655;28;5559;-76
2022/03/11 07:29:22;;;;;;;;;;;;;;;;;;4978719;28;5474;-77
2022/03/11 07:31:47;;;;;;;;;;;;;;;;;;4978933;28;5541;-77
2022/03/11 07:34:12;;;;;;;;;;;;;;;;;;4979339;28;5461;-78
2022/03/11 07:36:38;;;;;;;;;;;;;;;;;;4977648;28;5413;-77
2022/03/11 07:39:04;;;;;;;;;;;;;;;;;;4979437;28;5390;-78
2022/03/11 07:41:29;;;;;;;;;;;;;;;;;;4978485;28;5548;-77
2022/03/11 07:43:55;;;;;;;;;;;;;;;;;;4979680;28;6249;-77
2022/03/11 07:46:21;;;;;;;;;;;;;;;;;;4977626;28;5589;-77
2022/03/11 07:48:46;;;;;;;;;;;;;;;;;;4979285;28;5601;-76
2022/03/11 07:51:11;;;;;;;;;;;;;;;;;;4979377;28;5801;-76
2022/03/11 07:53:37;;;;;;;;;;;;;;;;;;4977000;28;5412;-76
2022/03/11 07:56:04;;;;;;;;;;;;;;;;;;4978299;28;5618;-77
2022/03/11 07:58:29;;;;;;;;;;;;;;;;;;4978407;28;6401;-76
2022/03/11 08:00:55;;;;;;;;;;;;;;;;;;4978707;28;5747;-76
2022/03/11 08:03:20;;;;;;;;;;;;;;;;;;4977794;28;5466;-76
2022/03/11 08:05:45;;;;;;;;;;;;;;;;;;4978981;28;5580;-76
2022/03/11 08:08:11;;;;;;;;;;;;;;;;;;4979155;28;5441;-76
2022/03/11 08:10:37;;;;;;;;;;;;;;;;;;4978894;28;5929;-78
2022/03/11 08:13:08;;;;;;;;;;;;;;;;;;4979214;28;5584;-78
2022/03/11 08:15:34;;;;;;;;;;;;;;;;;;4977735;28;5474;-78
2022/03/11 08:17:59;;;;;;;;;;;;;;;;;;4982028;28;5526;-77
2022/03/11 08:20:24;;;;;;;;;;;;;;;;;;4981913;28;5792;-78
2022/03/11 08:22:50;;;;;;;;;;;;;;;;;;4982672;28;5562;-77
2022/03/11 08:25:16;;;;;;;;;;;;;;;;;;4970199;28;5889;-79
2022/03/11 08:27:42;;;;;;;;;;;;;;;;;;4953946;28;5770;-84
2022/03/11 08:30:08;;;;;;;;;;;;;;;;;;4968037;28;5466;-87
2022/03/11 08:32:34;;;;;;;;;;;;;;;;;;4981728;28;5533;-82
2022/03/11 08:34:59;;;;;;;;;;;;;;;;;;4981790;28;5545;-81
2022/03/11 08:37:25;;;;;;;;;;;;;;;;;;4981523;28;5592;-84
2022/03/11 08:39:50;;;;;;;;;;;;;;;;;;4982796;28;6039;-86
2022/03/11 08:42:15;;;;;;;;;;;;;;;;;;4980320;28;5626;-77
2022/03/11 08:44:41;;;;;;;;;;;;;;;;;;4980742;28;5355;-77
2022/03/11 08:47:06;;;;;;;;;;;;;;;;;;4980661;28;5512;-77
2022/03/11 08:49:31;;;;;;;;;;;;;;;;;;4980539;28;5607;-76
2022/03/11 08:51:57;;;;;;;;;;;;;;;;;;4980291;28;5556;-76
2022/03/11 08:54:22;;;;;;;;;;;;;;;;;;4982026;28;6175;-76
2022/03/11 08:56:47;;;;;;;;;;;;;;;;;;4981213;28;5703;-76
2022/03/11 08:59:12;;;;;;;;;;;;;;;;;;4982520;28;5724;-76
2022/03/11 09:01:38;;;;;;;;;;;;;;;;;;4980696;28;5544;-83
2022/03/11 09:04:03;;;;;;;;;;;;;;;;;;4981174;28;5536;-75
2022/03/11 09:06:29;;;;;;;;;;;;;;;;;;4979356;28;5427;-74
2022/03/11 09:08:54;;;;;;;;;;;;;;;;;;4981524;28;5536;-72
2022/03/11 09:11:19;;;;;;;;;;;;;;;;;;4981000;28;5636;-76
2022/03/11 09:13:47;;;;;;;;;;;;;;;;;;4981413;28;5796;-75
2022/03/11 09:16:13;;;;;;;;;;;;;;;;;;4979196;28;5530;-73
2022/03/11 09:18:38;;;;;;;;;;;;;;;;;;4980910;28;5556;-73
2022/03/11 09:21:03;;;;;;;;;;;;;;;;;;4980820;28;5623;-72
2022/03/11 09:23:28;;;;;;;;;;;;;;;;;;4980024;28;5616;-73
2022/03/11 09:25:54;;;;;;;;;;;;;;;;;;4980439;28;5707;-74
2022/03/11 09:28:20;;;;;;;;;;;;;;;;;;4979726;28;5591;-75
2022/03/11 09:30:45;;;;;;;;;;;;;;;;;;4980874;28;5405;-71
2022/03/11 09:33:10;;;;;;;;;;;;;;;;;;4983729;28;5780;-76
2022/03/11 09:35:35;;;;;;;;;;;;;;;;;;4979251;28;6194;-76
2022/03/11 09:38:00;;;;;;;;;;;;;;;;;;4981698;28;5424;-72
2022/03/11 09:40:25;;;;;;;;;;;;;;;;;;4981032;28;5656;-76
2022/03/11 09:42:51;;;;;;;;;;;;;;;;;;4981301;28;5549;-74
2022/03/11 09:45:18;;;;;;;;;;;;;;;;;;4978060;28;5653;-76
2022/03/11 09:47:43;;;;;;;;;;;;;;;;;;4980462;28;5506;-76
2022/03/11 09:50:09;;;;;;;;;;;;;;;;;;4981584;28;6405;-76
2022/03/11 09:52:35;;;;;;;;;;;;;;;;;;4980600;28;5859;-75
2022/03/11 09:55:00;;;;;;;;;;;;;;;;;;4982683;28;5417;-76
2022/03/11 09:57:27;;;;;;;;;;;;;;;;;;4980349;28;5586;-76
2022/03/11 09:59:52;;;;;;;;;;;;;;;;;;4982495;28;5395;-75
2022/03/11 10:02:18;;;;;;;;;;;;;;;;;;4982925;28;6358;-75
2022/03/11 10:04:50;;;;;;;;;;;;;;;;;;4981723;28;5516;-74
2022/03/11 10:07:21;;;;;;;;;;;;;;;;;;4981967;28;5729;-75
2022/03/11 10:09:46;;;;;;;;;;;;;;;;;;4975340;28;5847;-75
2022/03/11 10:12:18;;;;;;;;;;;;;;;;;;4958976;28;5809;-75
2022/03/11 10:14:44;;;;;;;;;;;;;;;;;;4961843;28;5781;-75
2022/03/11 10:17:18;;;;;;;;;;;;;;;;;;4980079;28;5528;-75
2022/03/11 10:20:13;;;;;;;;;;;;;;;;;;4979734;28;5438;-75
2022/03/11 10:22:40;;;;;;;;;;;;;;;;;;4967128;28;5397;-75
2022/03/11 10:25:06;;;;;;;;;;;;;;;;;;4978216;28;5480;-75
2022/03/11 10:27:31;;;;;;;;;;;;;;;;;;4979819;28;5609;-76
2022/03/11 10:30:01;;;;;;;;;;;;;;;;;;4979717;28;5623;-75
2022/03/11 10:32:26;;;;;;;;;;;;;;;;;;4970455;28;5595;-75
2022/03/11 10:34:51;;;;;;;;;;;;;;;;;;4981134;28;6142;-74
2022/03/11 10:37:17;;;;;;;;;;;;;;;;;;4983176;28;1375;-72
2022/03/11 10:39:43;;;;;;;;;;;;;;;;;;4985978;28;1229;-71
2022/03/11 10:42:19;;;;;;;;;;;;;;;;;;4980010;28;1273;-72
2022/03/11 10:45:11;;;;;;;;;;;;;;;;;;4986644;28;1666;-72
2022/03/11 10:47:37;;;;;;;;;;;;;;;;;;4985379;28;1431;-73
2022/03/11 10:50:07;;;;;;;;;;;;;;;;;;4980135;28;1379;-72
2022/03/11 10:52:32;;;;;;;;;;;;;;;;;;4980333;28;1268;-74
2022/03/11 10:54:58;;;;;;;;;;;;;;;;;;4979137;28;1895;-74
2022/03/11 10:57:34;;;;;;;;;;;;;;;;;;4980127;28;1371;-74
2022/03/11 11:00:29;;;;;;;;;;;;;;;;;;4981430;28;1378;-74
2022/03/11 11:02:57;;;;;;;;;;;;;;;;;;4971419;28;1416;-73
2022/03/11 11:05:24;;;;;;;;;;;;;;;;;;4979666;28;1300;-74
2022/03/11 11:07:49;;;;;;;;;;;;;;;;;;4980414;28;1540;-72
2022/03/11 11:10:20;;;;;;;;;;;;;;;;;;4981167;28;1238;-72
2022/03/11 11:12:45;;;;;;;;;;;;;;;;;;4980872;28;1309;-72
2022/03/11 11:15:12;;;;;;;;;;;;;;;;;;4980398;28;1973;-72
2022/03/11 11:17:38;;;;;;;;;;;;;;;;;;4980460;28;1302;-72
2022/03/11 11:20:04;;;;;;;;;;;;;;;;;;4981112;28;1261;-73
2022/03/11 11:22:30;;;;;;;;;;;;;;;;;;4979988;28;1472;-71
2022/03/11 11:24:55;;;;;;;;;;;;;;;;;;4980370;28;1300;-72
2022/03/11 11:27:20;;;;;;;;;;;;;;;;;;4980909;28;1328;-72
2022/03/11 11:29:48;;;;;;;;;;;;;;;;;;4980985;28;1244;-72
2022/03/11 11:32:15;;;;;;;;;;;;;;;;;;4980681;28;1265;-72
2022/03/11 11:34:40;;;;;;;;;;;;;;;;;;4980629;28;1985;-71
2022/03/11 11:37:09;;;;;;;;;;;;;;;;;;4978562;28;1459;-70
2022/03/11 11:39:38;;;;;;;;;;;;;;;;;;4978899;28;1285;-72
2022/03/11 11:42:08;;;;;;;;;;;;;;;;;;4979523;28;1508;-71
2022/03/11 11:44:34;;;;;;;;;;;;;;;;;;4979832;28;1324;-72
2022/03/11 11:47:05;;;;;;;;;;;;;;;;;;4979466;28;1284;-72
2022/03/11 11:49:40;;;;;;;;;;;;;;;;;;4980502;28;1273;-71
2022/03/11 11:52:11;;;;;;;;;;;;;;;;;;4983299;28;1473;-72
2022/03/11 11:54:37;;;;;;;;;;;;;;;;;;4983665;28;1969;-72
2022/03/11 11:57:03;;;;;;;;;;;;;;;;;;4983246;28;1270;-71
2022/03/11 11:59:47;;;;;;;;;;;;;;;;;;4983990;28;1326;-71
2022/03/11 12:02:31;;;;;;;;;;;;;;;;;;4983796;28;1161;-72
2022/03/11 12:04:56;;;;;;;;;;;;;;;;;;4983159;28;1352;-72
2022/03/11 12:07:41;;;;;;;;;;;;;;;;;;4983706;28;1287;-71
2022/03/11 12:10:23;;;;;;;;;;;;;;;;;;4983529;28;1256;-72
2022/03/11 12:12:48;;;;;;;;;;;;;;;;;;4983609;28;1288;-71
2022/03/11 12:15:15;;;;;;;;;;;;;;;;;;4982450;28;1956;-71
2022/03/11 12:17:40;;;;;;;;;;;;;;;;;;4983710;28;1225;-71
2022/03/11 12:20:24;;;;;;;;;;;;;;;;;;4983644;28;1217;-72
2022/03/11 12:22:53;;;;;;;;;;;;;;;;;;4983917;28;1531;-72
2022/03/11 12:25:22;;;;;;;;;;;;;;;;;;4982466;28;1256;-71
2022/03/11 12:28:00;;;;;;;;;;;;;;;;;;4983920;28;1265;-71
2022/03/11 12:30:29;;;;;;;;;;;;;;;;;;4982760;28;1289;-71
2022/03/11 12:32:54;;;;;;;;;;;;;;;;;;4982725;28;1541;-71
2022/03/11 12:35:20;;;;;;;;;;;;;;;;;;4982731;28;1974;-71
2022/03/11 12:37:46;;;;;;;;;;;;;;;;;;4982240;28;1406;-71
2022/03/11 12:40:11;;;;;;;;;;;;;;;;;;4983745;28;1245;-71
2022/03/11 12:42:38;;;;;;;;;;;;;;;;;;4983398;28;1158;-71
2022/03/11 12:45:03;;;;;;;;;;;;;;;;;;4982914;28;1245;-72
2022/03/11 12:47:35;;;;;;;;;;;;;;;;;;4982742;28;1196;-72
2022/03/11 12:50:01;;;;;;;;;;;;;;;;;;4982966;28;1397;-72
2022/03/11 12:52:34;;;;;;;;;;;;;;;;;;4982988;28;1387;-72
2022/03/11 12:54:59;;;;;;;;;;;;;;;;;;4982466;28;1969;-72
2022/03/11 12:57:25;;;;;;;;;;;;;;;;;;4983136;28;1269;-71
2022/03/11 12:59:50;;;;;;;;;;;;;;;;;;4982870;28;1308;-72
2022/03/11 13:02:15;;;;;;;;;;;;;;;;;;4981995;28;1351;-72
2022/03/11 13:04:41;;;;;;;;;;;;;;;;;;4982137;28;1209;-72
2022/03/11 13:07:06;;;;;;;;;;;;;;;;;;4982848;28;1449;-71
2022/03/11 13:09:31;;;;;;;;;;;;;;;;;;4984038;28;1304;-71
2022/03/11 13:12:17;;;;;;;;;;;;;;;;;;4983956;28;1185;-72
2022/03/11 13:14:42;;;;;;;;;;;;;;;;;;4981935;28;1964;-71
2022/03/11 13:17:07;;;;;;;;;;;;;;;;;;4982571;28;1363;-71
2022/03/11 13:19:32;;;;;;;;;;;;;;;;;;4983047;28;1291;-72
2022/03/11 13:21:57;;;;;;;;;;;;;;;;;;4983127;28;1490;-70
2022/03/11 13:24:22;;;;;;;;;;;;;;;;;;4983471;28;1261;-71
2022/03/11 13:26:48;;;;;;;;;;;;;;;;;;4981991;28;1572;-71
2022/03/11 13:29:13;;;;;;;;;;;;;;;;;;4983180;28;1248;-72
2022/03/11 13:31:39;;;;;;;;;;;;;;;;;;4982388;28;1505;-71
2022/03/11 13:34:07;;;;;;;;;;;;;;;;;;4983357;28;1970;-71
2022/03/11 13:36:34;;;;;;;;;;;;;;;;;;4981684;28;1371;-73
2022/03/11 13:39:03;;;;;;;;;;;;;;;;;;4983080;28;1285;-71
2022/03/11 13:41:32;;;;;;;;;;;;;;;;;;4982927;28;1283;-72
2022/03/11 13:44:04;;;;;;;;;;;;;;;;;;4982775;28;1705;-71
2022/03/11 13:46:31;;;;;;;;;;;;;;;;;;4980512;28;1473;-70
2022/03/11 13:48:57;;;;;;;;;;;;;;;;;;4981955;28;1312;-72
2022/03/11 13:51:37;;;;;;;;;;;;;;;;;;4983187;28;1343;-72
2022/03/11 13:54:02;;;;;;;;;;;;;;;;;;4982200;28;1945;-72
2022/03/11 13:56:36;;;;;;;;;;;;;;;;;;4982163;28;1350;-71
2022/03/11 13:59:05;;;;;;;;;;;;;;;;;;4982598;28;1154;-71
2022/03/11 14:01:36;;;;;;;;;;;;;;;;;;4981592;28;1316;-72
2022/03/11 14:04:15;;;;;;;;;;;;;;;;;;4982550;28;1138;-70
2022/03/11 14:06:41;;;;;;;;;;;;;;;;;;4981819;28;1382;-69
2022/03/11 14:09:06;;;;;;;;;;;;;;;;;;4982313;28;1372;-70
2022/03/11 14:11:31;;;;;;;;;;;;;;;;;;4981714;28;1336;-71
2022/03/11 14:13:57;;;;;;;;;;;;;;;;;;4980508;28;1958;-73
2022/03/11 14:16:25;;;;;;;;;;;;;;;;;;4981594;28;1390;-76
2022/03/11 14:18:51;;;;;;;;;;;;;;;;;;4983009;28;1252;-76
2022/03/11 14:21:16;;;;;;;;;;;;;;;;;;4982768;28;1269;-76
2022/03/11 14:23:42;;;;;;;;;;;;;;;;;;4982721;28;1378;-77
2022/03/11 14:26:07;;;;;;;;;;;;;;;;;;4982113;28;1365;-77
2022/03/11 14:28:32;;;;;;;;;;;;;;;;;;4980950;28;1368;-76
2022/03/11 14:30:59;;;;;;;;;;;;;;;;;;4982190;28;1467;-78
2022/03/11 14:33:27;;;;;;;;;;;;;;;;;;4979813;28;1482;-78
2022/03/11 14:35:52;;;;;;;;;;;;;;;;;;4981865;28;1898;-77
2022/03/11 14:38:17;;;;;;;;;;;;;;;;;;4982881;28;1393;-77
2022/03/11 14:40:43;;;;;;;;;;;;;;;;;;4978469;28;1387;-77
2022/03/11 14:43:08;;;;;;;;;;;;;;;;;;4981384;28;1465;-77
2022/03/11 14:45:34;;;;;;;;;;;;;;;;;;4979829;28;1532;-77
2022/03/11 14:47:59;;;;;;;;;;;;;;;;;;4981811;28;1509;-77
2022/03/11 14:50:25;;;;;;;;;;;;;;;;;;4980269;28;1462;-76
2022/03/11 14:52:50;;;;;;;;;;;;;;;;;;4981800;28;1375;-76
2022/03/11 14:55:16;;;;;;;;;;;;;;;;;;4980320;28;1898;-76
2022/03/11 14:57:44;;;;;;;;;;;;;;;;;;4980960;28;1306;-76
2022/03/11 15:00:10;;;;;;;;;;;;;;;;;;4980917;28;1459;-76
2022/03/11 15:02:38;;;;;;;;;;;;;;;;;;4980528;28;1458;-76
2022/03/11 15:05:04;;;;;;;;;;;;;;;;;;4978531;28;1419;-76
2022/03/11 15:07:29;;;;;;;;;;;;;;;;;;4980580;28;1455;-76
2022/03/11 15:09:55;;;;;;;;;;;;;;;;;;4981432;28;1451;-76
2022/03/11 15:12:20;;;;;;;;;;;;;;;;;;4980335;28;1383;-78
2022/03/11 15:14:45;;;;;;;;;;;;;;;;;;4979236;28;1948;-78
2022/03/11 15:17:10;;;;;;;;;;;;;;;;;;4979243;28;1487;-78
2022/03/11 15:19:37;;;;;;;;;;;;;;;;;;4980903;28;1307;-79
2022/03/11 15:22:03;;;;;;;;;;;;;;;;;;4978926;28;1463;-78
2022/03/11 15:24:28;;;;;;;;;;;;;;;;;;4981424;28;1308;-77
2022/03/11 15:26:53;;;;;;;;;;;;;;;;;;4979613;28;1300;-77
2022/03/11 15:29:18;;;;;;;;;;;;;;;;;;4979258;28;1473;-77
2022/03/11 15:31:48;;;;;;;;;;;;;;;;;;4978575;28;1410;-77
2022/03/11 15:34:13;;;;;;;;;;;;;;;;;;4980143;28;1894;-78
2022/03/11 15:36:40;;;;;;;;;;;;;;;;;;4978929;28;1411;-78
2022/03/11 15:39:05;;;;;;;;;;;;;;;;;;4978001;28;1451;-78
2022/03/11 15:41:32;;;;;;;;;;;;;;;;;;4979288;28;1398;-78
2022/03/11 15:44:00;;;;;;;;;;;;;;;;;;4978193;28;1371;-78
2022/03/11 15:46:28;;;;;;;;;;;;;;;;;;4979532;28;1455;-78
2022/03/11 15:48:53;;;;;;;;;;;;;;;;;;4979533;28;1436;-79
2022/03/11 15:51:19;;;;;;;;;;;;;;;;;;4978779;28;1275;-77
2022/03/11 15:53:44;;;;;;;;;;;;;;;;;;4979686;28;1434;-77
2022/03/11 15:56:09;;;;;;;;;;;;;;;;;;4977977;28;1972;-79
2022/03/11 15:58:35;;;;;;;;;;;;;;;;;;4979567;28;1454;-77
2022/03/11 16:01:00;;;;;;;;;;;;;;;;;;4963482;28;1436;-77
2022/03/11 16:03:26;;;;;;;;;;;;;;;;;;4979673;28;1359;-77
2022/03/11 16:05:51;;;;;;;;;;;;;;;;;;4978001;28;1403;-77
2022/03/11 16:08:16;;;;;;;;;;;;;;;;;;4962970;28;1391;-78
2022/03/11 16:10:44;;;;;;;;;;;;;;;;;;4978031;28;1435;-78
2022/03/11 16:13:10;;;;;;;;;;;;;;;;;;4980252;28;1343;-78
2022/03/11 16:15:35;;;;;;;;;;;;;;;;;;4978054;28;1965;-77
2022/03/11 16:18:00;;;;;;;;;;;;;;;;;;4977692;28;1379;-78
2022/03/11 16:20:25;;;;;;;;;;;;;;;;;;4979230;28;1398;-78
2022/03/11 16:22:51;;;;;;;;;;;;;;;;;;4978999;28;1469;-76
2022/03/11 16:25:16;;;;;;;;;;;;;;;;;;4977212;28;1437;-76
2022/03/11 16:27:41;;;;;;;;;;;;;;;;;;4979303;28;1429;-83
2022/03/11 16:30:07;;;;;;;;;;;;;;;;;;4979633;28;1442;-81
2022/03/11 16:32:33;;;;;;;;;;;;;;;;;;4979044;28;1395;-78
2022/03/11 16:34:58;;;;;;;;;;;;;;;;;;4979170;28;1898;-80
2022/03/11 16:37:24;;;;;;;;;;;;;;;;;;4979734;28;1354;-81
2022/03/11 16:39:49;;;;;;;;;;;;;;;;;;4982351;28;1468;-79
2022/03/11 16:42:14;;;;;;;;;;;;;;;;;;4983486;28;1358;-78
2022/03/11 16:44:39;;;;;;;;;;;;;;;;;;4983287;28;1394;-80
2022/03/11 16:47:07;;;;;;;;;;;;;;;;;;4981299;28;1410;-80
2022/03/11 16:49:33;;;;;;;;;;;;;;;;;;4983231;28;1430;-80
2022/03/11 16:51:59;;;;;;;;;;;;;;;;;;4982689;28;1391;-81
2022/03/11 16:54:24;;;;;;;;;;;;;;;;;;4983354;28;1906;-80
2022/03/11 16:56:49;;;;;;;;;;;;;;;;;;4982521;28;1442;-83